Latest Coastal Weather Observations for Yarram Airport

IDV60701

Issued at 5:51 pm EST Saturday 5 September 2015 (issued every 10 minutes, with the page automatically refreshed every 10 minutes)

About coastal observations | Map of coastal stations | Coastal observations for VIC | Marine services | Other Formats
Station Details ID: 085151 Name: YARRAM AIRPORT Lat: -38.56 Lon: 146.75 Height: 17.9 m
Data from the previous 72 hours. | See also: Recent months at Yarram Airport
Date/Time
EST
Temp

°C
Wind Pressure Rain
since 9am
mm
Weather Cloud Vis
km
Sea
Height
m
Swell
Dir
 
Speed
knots
Gust
knots
hPa Trend Height
m
Period
s
Dir
05/05:30pm 9.3 SW 7 8 1023.1 - 0.0 - - - - - - -
05/05:00pm 11.1 SW 9 11 1022.8 - 0.0 - - - - - - -
05/04:30pm 11.6 SSW 12 16 1022.7 - 0.0 - - - - - - -
05/04:00pm 12.5 SSW 12 16 1022.6 - 0.0 - - - - - - -
05/03:30pm 14.1 SW 10 14 1022.6 - 0.0 - - - - - - -
05/03:00pm 12.9 SW 12 17 1022.6 - 0.0 - - - - - - -
05/02:30pm 13.6 SW 11 16 1022.6 - 0.0 - - - - - - -
05/02:00pm 13.2 SW 11 16 1022.6 - 0.0 - - - - - - -
05/01:30pm 14.2 WSW 12 17 1022.7 - 0.0 - - - - - - -
05/01:00pm 13.0 SW 13 17 1023.1 - 0.0 - - - - - - -
05/12:30pm 13.9 WSW 13 17 1023.4 - 0.0 - - - - - - -
05/12:00pm 12.7 WSW 13 19 1023.7 - 0.0 - - - - - - -
05/11:30am 13.0 WSW 12 16 1023.7 - 0.0 - - - - - - -
05/11:00am 12.5 W 12 17 1024.0 - 0.0 - - - - - - -
05/10:30am 12.0 WSW 15 19 1024.1 - 0.0 - - - - - - -
05/10:00am 12.0 W 14 18 1024.2 - 0.0 - - - - - - -
05/09:30am 11.7 WSW 13 18 1024.3 - 0.0 - - - - - - -
05/09:00am 11.2 WSW 11 15 1024.3 - 0.2 - - - - - - -
05/08:30am 10.5 SW 8 11 1024.3 - 0.2 - - - - - - -
05/08:00am 10.3 WSW 10 13 1024.1 - 0.2 - - - - - - -
05/07:30am 10.0 W 9 12 1023.7 - 0.0 - - - - - - -
05/07:00am 9.7 W 8 12 1023.3 - 0.0 - - - - - - -
05/06:30am 9.5 WSW 7 10 1023.0 - 0.0 - - - - - - -
05/06:00am 9.5 WSW 11 18 1022.8 - 0.0 - - - - - - -
05/05:30am 9.4 W 9 11 1022.4 - 0.0 - - - - - - -
05/05:00am 9.4 W 10 14 1022.2 - 0.0 - - - - - - -
05/04:30am 9.8 W 12 17 1022.1 - 0.0 - - - - - - -
05/04:00am 9.4 WSW 11 16 1021.9 - 0.0 - - - - - - -
05/03:30am 9.4 W 10 15 1021.7 - 0.0 - - - - - - -
05/03:00am 8.5 W 8 11 1021.9 - 0.0 - - - - - - -
05/02:30am 8.6 W 6 8 1022.3 - 0.0 - - - - - - -
05/02:00am 8.9 W 7 9 1022.7 - 0.0 - - - - - - -
05/01:30am 8.4 W 7 9 1022.7 - 0.0 - - - - - - -
05/01:00am 8.5 WNW 8 10 1022.8 - 0.0 - - - - - - -
05/12:30am 9.6 W 7 11 1023.2 - 0.0 - - - - - - -
05/12:00am 9.5 WNW 8 11 1023.3 - 0.0 - - - - - - -
 
Date/Time
EST
Temp

°C
Wind Pressure Rain
since 9am
mm
Weather Cloud Vis
km
Sea
Height
m
Swell
Dir
 
Speed
knots
Gust
knots
hPa Trend Height
m
Period
s
Dir
04/11:30pm 9.6 NW 7 11 1023.3 - 0.0 - - - - - - -
04/11:00pm 9.7 W 9 12 1023.7 - 0.0 - - - - - - -
04/10:30pm 9.6 WNW 8 10 1023.7 - 0.0 - - - - - - -
04/10:00pm 9.2 WNW 9 13 1023.7 - 0.0 - - - - - - -
04/09:30pm 9.0 WNW 9 12 1023.8 - 0.0 - - - - - - -
04/09:00pm 9.3 W 8 10 1023.8 - 0.0 - - - - - - -
04/08:30pm 9.7 WSW 8 13 1023.9 - 0.0 - - - - - - -
04/08:00pm 9.6 W 9 12 1023.7 - 0.0 - - - - - - -
04/07:30pm 10.2 W 10 14 1023.5 - 0.0 - - - - - - -
04/07:00pm 10.1 W 12 17 1023.3 - 0.0 - - - - - - -
04/06:30pm 10.0 W 9 15 1023.3 - 0.0 - - - - - - -
04/06:00pm 10.6 W 12 18 1023.0 - 0.0 - - - - - - -
04/05:30pm 10.8 W 13 19 1022.8 - 0.0 - - - - - - -
04/05:00pm 11.1 WSW 14 22 1022.8 - 0.0 - - - - - - -
04/04:30pm 11.5 WSW 14 20 1022.4 - 0.0 - - - - - - -
04/04:00pm 12.0 WSW 13 17 1022.5 - 0.0 - - - - - - -
04/03:30pm 11.7 WSW 16 22 1022.5 - 0.0 - - - - - - -
04/03:00pm 12.4 WSW 16 22 1022.4 - 0.0 - - - - - - -
04/02:30pm 12.7 WSW 17 23 1022.5 - 0.0 - - - - - - -
04/02:00pm 11.9 WSW 16 24 1022.5 - 0.0 - - - - - - -
04/01:30pm 12.4 WSW 16 22 1022.7 - 0.0 - - - - - - -
04/01:00pm 12.8 W 13 18 1023.0 - 0.0 - - - - - - -
04/12:30pm 11.9 WSW 14 21 1023.4 - 0.0 - - - - - - -
04/12:00pm 11.9 WSW 15 19 1023.8 - 0.0 - - - - - - -
04/11:30am 11.4 WSW 14 17 1024.1 - 0.0 - - - - - - -
04/11:00am 11.5 WSW 13 17 1024.4 - 0.0 - - - - - - -
04/10:30am 11.0 WSW 12 15 1024.5 - 0.0 - - - - - - -
04/10:00am 10.5 WSW 11 17 1024.6 - 0.0 - - - - - - -
04/09:30am 10.4 WSW 12 19 1024.6 - 0.0 - - - - - - -
04/09:00am 10.5 WSW 13 17 1024.5 - 0.0 - - - - - - -
04/08:30am 9.5 W 9 11 1024.4 - 0.0 - - - - - - -
04/08:00am 8.8 W 8 10 1024.3 - 0.0 - - - - - - -
04/07:30am 8.4 W 8 12 1024.0 - 0.0 - - - - - - -
04/07:00am 7.3 W 7 9 1023.5 - 0.0 - - - - - - -
04/06:30am 6.1 WNW 7 9 1023.2 - 0.0 - - - - - - -
04/06:00am 4.8 WNW 9 10 1023.1 - 0.0 - - - - - - -
04/05:30am 4.8 WNW 8 9 1022.8 - 0.0 - - - - - - -
04/05:00am 5.0 WNW 8 9 1022.7 - 0.0 - - - - - - -
04/04:30am 5.6 W 7 10 1022.4 - 0.0 - - - - - - -
04/04:00am 6.3 WNW 9 11 1022.1 - 0.0 - - - - - - -
04/03:30am 6.8 WNW 9 11 1021.9 - 0.0 - - - - - - -
04/03:00am 7.5 WNW 7 9 1022.0 - 0.0 - - - - - - -
04/02:30am 7.3 WNW 8 9 1022.1 - 0.0 - - - - - - -
04/02:00am 7.5 W 7 9 1022.2 - 0.0 - - - - - - -
04/01:30am 6.8 WNW 7 8 1022.2 - 0.0 - - - - - - -
04/01:00am 7.6 W 7 9 1022.1 - 0.0 - - - - - - -
04/12:30am 7.9 W 7 8 1021.9 - 0.0 - - - - - - -
04/12:00am 8.3 WNW 8 10 1021.7 - 0.0 - - - - - - -
 
Date/Time
EST
Temp

°C
Wind Pressure Rain
since 9am
mm
Weather Cloud Vis
km
Sea
Height
m
Swell
Dir
 
Speed
knots
Gust
knots
hPa Trend Height
m
Period
s
Dir
03/11:30pm 9.1 W 10 13 1021.5 - 0.0 - - - - - - -
03/11:00pm 9.6 W 11 16 1021.3 - 0.0 - - - - - - -
03/10:30pm 10.2 W 10 16 1021.3 - 0.0 - - - - - - -
03/10:00pm 10.1 WNW 9 13 1021.1 - 0.0 - - - - - - -
03/09:30pm 10.0 W 8 12 1020.8 - 0.0 - - - - - - -
03/09:00pm 10.0 W 8 10 1020.6 - 0.0 - - - - - - -
03/08:30pm 10.4 W 6 9 1020.2 - 0.0 - - - - - - -
03/08:00pm 10.7 W 6 8 1020.0 - 0.0 - - - - - - -
03/07:30pm 10.7 W 5 6 1019.7 - 0.0 - - - - - - -
03/07:00pm 10.8 WSW 6 7 1019.4 - 0.0 - - - - - - -
03/06:30pm 11.0 SW 7 9 1019.0 - 0.0 - - - - - - -
03/06:00pm 11.6 WSW 10 13 1018.2 - 0.0 - - - - - - -
03/05:30pm 11.8 WSW 9 14 1017.6 - 0.0 - - - - - - -
03/05:00pm 12.0 WSW 8 14 1016.9 - 0.0 - - - - - - -
03/04:30pm 12.2 SW 10 14 1016.4 - 0.0 - - - - - - -
03/04:00pm 12.4 SW 11 13 1015.8 - 0.0 - - - - - - -
03/03:30pm 12.8 SW 11 16 1015.4 - 0.0 - - - - - - -
03/03:00pm 12.5 SSW 11 14 1015.0 - 0.0 - - - - - - -
03/02:30pm 13.0 SW 12 17 1014.6 - 0.0 - - - - - - -
03/02:00pm 13.5 SSW 13 16 1014.2 - 0.0 - - - - - - -
03/01:30pm 14.3 SSW 11 14 1013.9 - 0.0 - - - - - - -
03/01:00pm 13.7 SW 12 15 1013.9 - 0.0 - - - - - - -
03/12:30pm 13.4 SW 12 16 1013.9 - 0.0 - - - - - - -
03/12:00pm 13.1 WSW 11 15 1013.9 - 0.0 - - - - - - -
03/11:30am 13.6 WSW 12 16 1013.3 - 0.0 - - - - - - -
03/11:00am 13.5 WSW 11 16 1012.9 - 0.0 - - - - - - -
03/10:30am 13.3 SW 13 18 1012.5 - 0.0 - - - - - - -
03/10:00am 13.1 SW 12 15 1012.1 - 0.0 - - - - - - -
03/09:30am 12.5 WSW 6 13 1011.8 - 0.0 - - - - - - -
03/09:00am 11.6 WSW 8 11 1011.1 - 0.0 - - - - - - -
03/08:30am 11.3 WSW 9 13 1010.6 - 0.0 - - - - - - -
03/08:00am 10.7 W 7 8 1010.2 - 0.0 - - - - - - -
03/07:30am 10.1 W 7 8 1009.9 - 0.0 - - - - - - -
03/07:00am 9.5 W 7 8 1009.5 - 0.0 - - - - - - -
03/06:30am 9.7 W 7 10 1009.3 - 0.0 - - - - - - -
03/06:00am 9.2 W 7 9 1008.7 - 0.0 - - - - - - -
03/05:30am 9.2 W 7 9 1008.4 - 0.0 - - - - - - -
03/05:00am 8.6 WSW 7 9 1008.1 - 0.0 - - - - - - -
03/04:30am 8.4 W 6 8 1008.3 - 0.0 - - - - - - -
03/04:00am 7.6 WNW 7 9 1007.8 - 0.0 - - - - - - -
03/03:30am 7.3 W 7 9 1007.5 - 0.0 - - - - - - -
03/03:00am 6.1 W 8 9 1007.2 - 0.0 - - - - - - -
03/02:30am 5.9 W 6 7 1007.4 - 0.0 - - - - - - -
03/02:00am 6.4 WNW 7 8 1007.8 - 0.0 - - - - - - -
03/01:30am 6.6 W 7 8 1008.1 - 0.0 - - - - - - -
03/01:00am 6.2 WNW 6 7 1008.1 - 0.0 - - - - - - -
03/12:30am 6.3 W 6 7 1008.1 - 0.0 - - - - - - -
03/12:00am 6.8 CALM 0 0 1007.9 - 0.0 - - - - - - -
 
Date/Time
EST
Temp

°C
Wind Pressure Rain
since 9am
mm
Weather Cloud Vis
km
Sea
Height
m
Swell
Dir
 
Speed
knots
Gust
knots
hPa Trend Height
m
Period
s
Dir
02/11:30pm 7.5 CALM 0 0 1008.1 - 0.0 - - - - - - -
02/11:00pm 7.9 CALM 0 0 1008.3 - 0.0 - - - - - - -
02/10:30pm 8.4 CALM 0 0 1008.7 - 0.0 - - - - - - -
02/10:00pm 8.5 CALM 0 0 1008.9 - 0.0 - - - - - - -
02/09:30pm 8.7 CALM 0 0 1009.1 - 0.0 - - - - - - -
02/09:00pm 8.5 CALM 0 0 1009.0 - 0.0 - - - - - - -
02/08:30pm 8.5 CALM 0 0 1009.3 - 0.0 - - - - - - -
02/08:00pm 8.5 N 1 3 1009.1 - 0.0 - - - - - - -
02/07:30pm 8.4 CALM 0 4 1009.0 - 0.0 - - - - - - -
02/07:00pm 7.8 NNW 3 4 1009.1 - 0.0 - - - - - - -
02/06:30pm 9.1 NE 6 7 1008.8 - 0.0 - - - - - - -
02/06:00pm 9.7 ENE 6 8 1008.7 - 0.0 - - - - - - -

Other Formats:

Comma delimited format used in spreadsheet applications
http://www.bom.gov.au/fwo/IDV60701/IDV60701.95890.axf

JavaScript Object Notation format (JSON) in row-major order
http://www.bom.gov.au/fwo/IDV60701/IDV60701.95890.json